Time;durP1;ratioP1;P1;durP2;ratioP2;P2;SDS_P1;SDS_P2;PMS_P1;PMS_P2;Temp;Humidity;BMP_temperature;BMP_pressure;BME280_temperature;BME280_humidity;BME280_pressure;Samples;Min_cycle;Max_cycle;Signal;HPM_P1;HPM_P2
2022/03/28 00:00:53;;;;;;;80.13;43.50;;;27.20;99.90;;;;;;4957873;28;20451;-60
2022/03/28 00:03:20;;;;;;;68.93;42.33;;;27.20;99.90;;;;;;4975066;28;20019;-61
2022/03/28 00:05:47;;;;;;;68.13;43.97;;;27.20;99.90;;;;;;4956318;28;20028;-61
2022/03/28 00:08:13;;;;;;;71.07;42.63;;;27.20;99.90;;;;;;4959828;28;20031;-61
2022/03/28 00:10:40;;;;;;;70.13;42.05;;;27.30;99.90;;;;;;4963271;28;20023;-60
2022/03/28 00:13:07;;;;;;;63.88;39.72;;;27.30;99.90;;;;;;4955654;28;20421;-61
2022/03/28 00:15:34;;;;;;;74.05;42.67;;;27.30;99.90;;;;;;4964731;28;20092;-60
2022/03/28 00:18:01;;;;;;;62.78;38.20;;;27.30;99.90;;;;;;4975302;28;20389;-60
2022/03/28 00:20:27;;;;;;;59.85;39.80;;;27.40;99.90;;;;;;4974964;28;20433;-60
2022/03/28 00:22:54;;;;;;;71.97;44.17;;;27.40;99.90;;;;;;4974986;28;20038;-60
2022/03/28 00:25:21;;;;;;;75.88;45.45;;;27.40;99.90;;;;;;4969957;28;20039;-61
2022/03/28 00:27:47;;;;;;;76.18;44.25;;;27.50;99.90;;;;;;4973862;28;20027;-60
2022/03/28 00:30:14;;;;;;;81.07;47.78;;;27.50;99.90;;;;;;4974152;28;20496;-61
2022/03/28 00:32:41;;;;;;;76.10;45.05;;;27.60;99.90;;;;;;4958700;28;20035;-59
2022/03/28 00:35:08;;;;;;;68.50;40.28;;;27.60;99.90;;;;;;4955877;28;20433;-60
2022/03/28 00:37:37;;;;;;;73.40;43.10;;;27.70;99.90;;;;;;4955742;28;20532;-60
2022/03/28 00:40:06;;;;;;;69.57;43.75;;;27.70;99.90;;;;;;4955554;28;20031;-61
2022/03/28 00:42:32;;;;;;;82.15;51.85;;;27.80;99.90;;;;;;4966965;28;20041;-60
2022/03/28 00:44:59;;;;;;;74.57;46.47;;;27.80;99.90;;;;;;4974897;28;20105;-60
2022/03/28 00:47:26;;;;;;;180.60;130.75;;;27.90;99.90;;;;;;4965707;28;20039;-60
2022/03/28 00:49:53;;;;;;;89.13;63.80;;;28.00;99.90;;;;;;4958270;28;20057;-61
2022/03/28 00:52:19;;;;;;;81.82;54.85;;;28.10;99.90;;;;;;4972007;28;20026;-61
2022/03/28 00:54:46;;;;;;;68.32;49.15;;;28.20;99.90;;;;;;4974916;28;20027;-61
2022/03/28 00:57:13;;;;;;;89.75;53.88;;;28.10;99.90;;;;;;4972182;28;20034;-61
2022/03/28 00:59:39;;;;;;;75.18;49.65;;;28.10;99.90;;;;;;4972411;28;20038;-61
2022/03/28 01:02:06;;;;;;;76.45;51.83;;;28.20;99.90;;;;;;4979118;28;20031;-60
2022/03/28 01:04:33;;;;;;;84.57;55.03;;;28.20;99.90;;;;;;4980594;28;20069;-60
2022/03/28 01:07:00;;;;;;;85.45;55.55;;;28.10;99.90;;;;;;4976198;28;20034;-60
2022/03/28 01:09:27;;;;;;;97.70;65.63;;;28.10;99.90;;;;;;4981982;28;20346;-59
2022/03/28 01:11:54;;;;;;;136.90;97.75;;;28.10;99.90;;;;;;4972484;28;20142;-61
2022/03/28 01:14:21;;;;;;;74.88;50.83;;;28.20;99.90;;;;;;4975766;28;20362;-60
2022/03/28 01:19:18;;;;;;;127.28;91.50;;;28.20;99.90;;;;;;4972270;28;20207;-60
2022/03/28 01:21:45;;;;;;;96.72;62.67;;;28.30;99.90;;;;;;4973784;28;20527;-61
2022/03/28 01:24:12;;;;;;;84.53;56.60;;;28.30;99.90;;;;;;4963608;28;20032;-64
2022/03/28 01:26:39;;;;;;;80.50;56.50;;;28.40;99.90;;;;;;4958968;28;20023;-61
2022/03/28 01:29:06;;;;;;;78.50;53.72;;;28.40;99.90;;;;;;4975303;28;20481;-61
2022/03/28 01:31:32;;;;;;;85.30;55.30;;;28.40;99.90;;;;;;4983872;28;20046;-58
2022/03/28 01:33:59;;;;;;;93.70;65.13;;;28.40;99.90;;;;;;4987894;28;20153;-59
2022/03/28 01:36:29;;;;;;;84.45;51.17;;;28.40;99.90;;;;;;4990890;28;20026;-57
2022/03/28 01:38:55;;;;;;;90.53;57.70;;;28.40;99.90;;;;;;4988244;28;20042;-63
2022/03/28 01:41:22;;;;;;;58.85;36.92;;;28.40;99.90;;;;;;4991697;28;20113;-62
2022/03/28 01:43:49;;;;;;;57.08;36.70;;;28.40;99.90;;;;;;4986190;28;20031;-60
2022/03/28 01:46:16;;;;;;;56.95;38.90;;;28.40;99.90;;;;;;4980635;28;20029;-60
2022/03/28 01:48:43;;;;;;;59.10;41.88;;;28.40;99.90;;;;;;4981962;28;20034;-60
2022/03/28 01:51:09;;;;;;;58.65;41.67;;;28.50;99.90;;;;;;4981917;28;20022;-58
2022/03/28 01:53:36;;;;;;;48.45;39.33;;;28.70;99.90;;;;;;4986866;28;20383;-60
2022/03/28 01:56:03;;;;;;;59.08;41.83;;;28.70;99.90;;;;;;4972313;28;20092;-61
2022/03/28 01:58:29;;;;;;;58.70;34.38;;;28.80;99.90;;;;;;4985979;28;20078;-58
2022/03/28 02:00:56;;;;;;;41.17;30.35;;;28.90;99.90;;;;;;4979558;28;20522;-62
2022/03/28 02:03:22;;;;;;;52.53;37.70;;;29.00;99.90;;;;;;4979947;28;20100;-62
2022/03/28 02:05:49;;;;;;;59.50;40.05;;;29.00;99.90;;;;;;4979589;28;20469;-62
2022/03/28 02:08:16;;;;;;;108.78;74.95;;;29.00;99.90;;;;;;4980746;28;20026;-62
2022/03/28 02:10:42;;;;;;;62.00;44.45;;;29.10;99.90;;;;;;4991039;28;20539;-62
2022/03/28 02:13:09;;;;;;;59.88;38.85;;;29.20;99.90;;;;;;4976613;28;20560;-62
2022/03/28 02:15:36;;;;;;;300.98;226.13;;;29.30;99.90;;;;;;4975443;28;20046;-63
2022/03/28 02:18:03;;;;;;;174.10;120.32;;;29.30;99.90;;;;;;4967639;28;20027;-62
2022/03/28 02:20:29;;;;;;;103.65;72.60;;;29.40;99.90;;;;;;4958043;28;20042;-62
2022/03/28 02:22:56;;;;;;;554.65;363.55;;;29.40;99.90;;;;;;4958912;28;20035;-62
2022/03/28 02:25:23;;;;;;;407.33;247.57;;;29.50;99.90;;;;;;4958014;28;20062;-62
2022/03/28 02:27:50;;;;;;;401.20;241.50;;;29.70;99.90;;;;;;4973768;28;20101;-62
2022/03/28 02:30:16;;;;;;;92.60;62.75;;;29.60;99.90;;;;;;4978607;28;20022;-61
2022/03/28 02:32:43;;;;;;;166.70;102.20;;;29.70;99.90;;;;;;4987299;28;20039;-62
2022/03/28 02:35:11;;;;;;;558.45;392.48;;;29.90;99.90;;;;;;4987008;28;20053;-62
2022/03/28 02:37:38;;;;;;;112.70;81.82;;;29.90;99.90;;;;;;4983836;28;20027;-62
2022/03/28 02:40:05;;;;;;;81.35;55.90;;;29.90;99.90;;;;;;4977286;28;20227;-62
2022/03/28 02:42:32;;;;;;;400.73;273.08;;;29.90;99.90;;;;;;4975793;28;20105;-62
2022/03/28 02:44:59;;;;;;;480.13;367.48;;;29.90;99.90;;;;;;4977272;28;20366;-62
2022/03/28 02:47:26;;;;;;;243.75;170.52;;;30.00;99.90;;;;;;4977531;28;20030;-62
2022/03/28 02:49:53;;;;;;;190.30;140.52;;;30.10;99.90;;;;;;4977242;28;20106;-61
2022/03/28 02:52:19;;;;;;;179.45;132.13;;;30.30;99.90;;;;;;4972498;28;20497;-62
2022/03/28 02:54:46;;;;;;;125.53;91.28;;;30.40;99.90;;;;;;4977177;28;20038;-62
2022/03/28 02:57:13;;;;;;;87.13;66.60;;;30.60;99.90;;;;;;4977004;28;20389;-61
2022/03/28 02:59:40;;;;;;;90.90;64.72;;;30.70;99.90;;;;;;4972230;28;20093;-62
2022/03/28 03:02:07;;;;;;;68.20;52.38;;;30.80;99.90;;;;;;4969702;28;20541;-62
2022/03/28 03:04:34;;;;;;;65.13;49.17;;;30.80;99.90;;;;;;4972845;28;20031;-61
2022/03/28 03:07:02;;;;;;;72.70;54.45;;;30.70;99.90;;;;;;4975200;28;20537;-61
2022/03/28 03:09:28;;;;;;;75.70;57.50;;;30.70;99.90;;;;;;4961320;28;20035;-61
2022/03/28 03:11:55;;;;;;;74.10;58.92;;;30.70;99.90;;;;;;4967693;28;20047;-62
2022/03/28 03:14:23;;;;;;;68.53;52.53;;;30.80;99.90;;;;;;4963216;28;20047;-62
2022/03/28 03:16:50;;;;;;;69.10;55.65;;;30.80;99.90;;;;;;4957258;28;20071;-62
2022/03/28 03:19:17;;;;;;;72.55;57.60;;;31.00;99.90;;;;;;4968387;28;20519;-61
2022/03/28 03:21:45;;;;;;;66.43;54.08;;;31.20;99.90;;;;;;4963657;28;20121;-60
2022/03/28 03:24:12;;;;;;;69.60;51.90;;;31.10;99.90;;;;;;4960677;28;20033;-61
2022/03/28 03:26:39;;;;;;;67.90;51.47;;;31.10;99.90;;;;;;4967240;28;20027;-60
2022/03/28 03:29:05;;;;;;;73.10;58.15;;;31.00;99.90;;;;;;5008782;23;20058;-61
2022/03/28 03:31:32;;;;;;;58.53;44.28;;;31.20;99.90;;;;;;4995653;28;20026;-61
2022/03/28 03:33:59;;;;;;;62.00;46.67;;;31.20;99.90;;;;;;5000385;28;20459;-61
2022/03/28 03:36:26;;;;;;;59.63;47.72;;;31.20;99.90;;;;;;5012001;28;20542;-61
2022/03/28 03:38:54;;;;;;;64.63;47.95;;;31.30;99.90;;;;;;5012598;28;20033;-62
2022/03/28 03:41:20;;;;;;;51.13;42.03;;;31.40;99.90;;;;;;5011221;28;20088;-62
2022/03/28 03:43:47;;;;;;;51.13;39.90;;;31.30;99.90;;;;;;5014405;28;20030;-61
2022/03/28 03:46:14;;;;;;;42.20;35.28;;;31.40;99.90;;;;;;5009371;28;20026;-61
2022/03/28 03:48:40;;;;;;;46.03;35.60;;;31.40;99.90;;;;;;5014266;28;20543;-62
2022/03/28 03:51:07;;;;;;;57.60;40.90;;;31.50;99.90;;;;;;5013020;28;20079;-61
2022/03/28 03:53:35;;;;;;;75.82;56.05;;;31.50;99.90;;;;;;5013318;28;20029;-61
2022/03/28 03:56:02;;;;;;;74.07;59.90;;;31.60;99.90;;;;;;5011592;28;20013;-62
2022/03/28 03:58:28;;;;;;;49.80;36.97;;;31.60;99.90;;;;;;5011803;28;20075;-60
2022/03/28 04:00:55;;;;;;;102.30;76.57;;;31.60;99.90;;;;;;5012040;28;20034;-59
2022/03/28 04:03:22;;;;;;;54.40;40.15;;;31.70;99.90;;;;;;5008821;28;20030;-59
2022/03/28 04:05:49;;;;;;;50.92;41.83;;;31.90;99.90;;;;;;5009668;28;20038;-60
2022/03/28 04:08:15;;;;;;;45.58;32.22;;;32.00;99.90;;;;;;5005734;28;20033;-60
2022/03/28 04:10:45;;;;;;;58.78;45.20;;;32.10;99.90;;;;;;5008697;28;20022;-60
2022/03/28 04:13:13;;;;;;;44.33;30.20;;;32.10;99.90;;;;;;5010459;28;20025;-60
2022/03/28 04:15:39;;;;;;;38.03;28.77;;;32.00;99.90;;;;;;5006106;28;20049;-60
2022/03/28 04:18:06;;;;;;;35.38;28.63;;;32.00;99.90;;;;;;5004495;28;20492;-60
2022/03/28 04:20:33;;;;;;;39.83;29.48;;;32.10;99.90;;;;;;5008808;28;20481;-60
2022/03/28 04:23:00;;;;;;;40.88;30.90;;;32.10;99.90;;;;;;5009377;28;20124;-61
2022/03/28 04:25:27;;;;;;;39.08;30.63;;;32.10;99.90;;;;;;5006595;28;20026;-60
2022/03/28 04:27:53;;;;;;;42.45;30.27;;;32.00;99.90;;;;;;5008163;28;20034;-60
2022/03/28 04:30:20;;;;;;;41.67;29.13;;;32.10;99.90;;;;;;5005948;28;20543;-60
2022/03/28 04:32:47;;;;;;;42.00;27.90;;;32.10;99.90;;;;;;5003726;28;20038;-60
2022/03/28 04:35:14;;;;;;;40.25;28.00;;;32.20;99.90;;;;;;5003274;28;20108;-60
2022/03/28 04:37:41;;;;;;;32.53;26.95;;;32.30;99.90;;;;;;5007746;28;20026;-61
2022/03/28 04:40:11;;;;;;;42.67;27.10;;;32.30;99.90;;;;;;5013652;28;20033;-60
2022/03/28 04:42:38;;;;;;;36.60;27.40;;;32.40;99.90;;;;;;5010684;28;20026;-60
2022/03/28 04:45:06;;;;;;;41.63;27.73;;;32.40;99.90;;;;;;5013792;28;20026;-60
2022/03/28 04:47:34;;;;;;;39.90;26.42;;;32.60;99.90;;;;;;5012698;28;20100;-60
2022/03/28 04:50:01;;;;;;;35.20;24.38;;;32.60;99.50;;;;;;5011402;28;20420;-60
2022/03/28 04:52:27;;;;;;;38.40;25.45;;;32.60;99.00;;;;;;5011153;28;20064;-60
2022/03/28 04:54:54;;;;;;;37.83;25.92;;;32.70;98.70;;;;;;5011327;28;20029;-60
2022/03/28 04:57:21;;;;;;;32.53;24.85;;;32.80;98.70;;;;;;5010160;28;20079;-60
2022/03/28 04:59:48;;;;;;;41.03;25.83;;;32.80;97.10;;;;;;5007467;28;20038;-59
2022/03/28 05:02:14;;;;;;;41.28;26.17;;;32.80;97.80;;;;;;5010387;28;20033;-61
2022/03/28 05:04:42;;;;;;;37.05;24.33;;;32.90;98.00;;;;;;5011096;28;20022;-60
2022/03/28 05:07:09;;;;;;;32.42;25.65;;;33.10;95.90;;;;;;5011397;28;20380;-60
2022/03/28 05:09:36;;;;;;;34.80;24.60;;;33.20;96.90;;;;;;5013092;28;20447;-60
2022/03/28 05:12:02;;;;;;;40.17;24.33;;;33.30;95.80;;;;;;5009143;28;20484;-60
2022/03/28 05:14:29;;;;;;;31.45;23.40;;;33.30;95.40;;;;;;5011720;28;20046;-61
2022/03/28 05:16:56;;;;;;;43.05;24.58;;;33.20;95.00;;;;;;5012557;28;20504;-61
2022/03/28 05:19:22;;;;;;;32.50;22.63;;;33.30;94.70;;;;;;5012421;28;20520;-60
2022/03/28 05:21:49;;;;;;;31.40;22.48;;;33.40;91.80;;;;;;5006672;28;20030;-61
2022/03/28 05:24:16;;;;;;;28.75;22.77;;;33.40;91.70;;;;;;4998782;28;20037;-60
2022/03/28 05:26:43;;;;;;;35.40;24.95;;;33.40;92.20;;;;;;5002363;28;20437;-60
2022/03/28 05:29:09;;;;;;;35.38;22.55;;;33.40;92.60;;;;;;5007789;28;20041;-60
2022/03/28 05:31:36;;;;;;;30.30;23.23;;;33.40;92.10;;;;;;5003865;28;20388;-59
2022/03/28 05:34:03;;;;;;;35.10;23.27;;;33.50;91.40;;;;;;5010763;28;20033;-59
2022/03/28 05:36:30;;;;;;;37.03;24.38;;;33.40;92.00;;;;;;5013393;28;20112;-60
2022/03/28 05:38:58;;;;;;;36.75;22.98;;;33.30;92.10;;;;;;5012364;28;20053;-61
2022/03/28 05:41:24;;;;;;;34.00;21.27;;;33.40;92.00;;;;;;5013121;28;20030;-60
2022/03/28 05:43:51;;;;;;;36.75;28.15;;;33.50;91.80;;;;;;5013375;28;20018;-60
2022/03/28 05:46:18;;;;;;;34.53;26.55;;;33.40;92.40;;;;;;5011223;28;20029;-61
2022/03/28 05:48:45;;;;;;;40.75;27.92;;;33.40;92.50;;;;;;5004284;28;20018;-60
2022/03/28 05:51:11;;;;;;;38.28;25.45;;;33.30;92.80;;;;;;5006624;28;20030;-61
2022/03/28 05:53:38;;;;;;;32.38;22.00;;;33.30;93.00;;;;;;5005891;28;20030;-61
2022/03/28 05:56:05;;;;;;;35.03;22.38;;;33.20;92.50;;;;;;5007989;28;20100;-61
2022/03/28 05:58:33;;;;;;;28.58;22.17;;;33.40;92.10;;;;;;5008279;28;20026;-60
2022/03/28 06:01:00;;;;;;;38.67;21.42;;;33.50;91.40;;;;;;5008711;28;20044;-60
2022/03/28 06:03:30;;;;;;;33.35;21.42;;;33.40;91.00;;;;;;5002213;28;20060;-59
2022/03/28 06:05:57;;;;;;;29.98;20.80;;;33.50;90.80;;;;;;5006721;28;20446;-59
2022/03/28 06:08:23;;;;;;;26.80;19.77;;;33.70;90.60;;;;;;5004935;28;20029;-60
2022/03/28 06:10:50;;;;;;;37.50;22.38;;;33.80;90.10;;;;;;5007135;28;20030;-60
2022/03/28 06:13:18;;;;;;;27.08;20.58;;;33.80;90.80;;;;;;5005371;28;20026;-61
2022/03/28 06:15:45;;;;;;;32.90;21.67;;;33.90;90.20;;;;;;5005527;28;20033;-61
2022/03/28 06:18:12;;;;;;;33.33;22.95;;;34.00;89.90;;;;;;4999581;28;20379;-62
2022/03/28 06:20:38;;;;;;;35.97;20.90;;;34.00;90.10;;;;;;5008395;28;20456;-61
2022/03/28 06:23:05;;;;;;;35.83;21.08;;;34.10;90.00;;;;;;5014568;28;20052;-60
2022/03/28 06:25:32;;;;;;;32.03;22.02;;;34.10;88.70;;;;;;5015016;28;20018;-61
2022/03/28 06:27:59;;;;;;;37.85;22.45;;;34.20;88.30;;;;;;5015409;28;20605;-61
2022/03/28 06:30:26;;;;;;;34.55;22.23;;;34.20;87.90;;;;;;5014614;28;20042;-62
2022/03/28 06:32:52;;;;;;;35.88;22.60;;;34.20;87.90;;;;;;5004802;28;20045;-62
2022/03/28 06:35:19;;;;;;;32.35;20.73;;;34.30;86.40;;;;;;5006854;28;20152;-60
2022/03/28 06:37:50;;;;;;;34.75;21.50;;;34.30;86.40;;;;;;5012777;28;20048;-61
2022/03/28 06:40:17;;;;;;;33.17;20.20;;;34.30;84.90;;;;;;5015570;28;20104;-60
2022/03/28 06:42:44;;;;;;;38.10;21.77;;;34.20;84.50;;;;;;5012984;28;20113;-60
2022/03/28 06:45:12;;;;;;;30.00;19.23;;;34.20;83.40;;;;;;5001343;28;20041;-61
2022/03/28 06:47:39;;;;;;;37.10;22.63;;;34.30;83.30;;;;;;4996296;28;20045;-61
2022/03/28 06:50:07;;;;;;;35.97;23.33;;;34.40;84.70;;;;;;4996500;28;20018;-60
2022/03/28 06:52:34;;;;;;;37.33;20.60;;;34.40;83.20;;;;;;5000115;28;20109;-60
2022/03/28 06:55:02;;;;;;;35.88;21.17;;;34.40;82.20;;;;;;5016207;28;20029;-60
2022/03/28 06:57:29;;;;;;;27.50;19.80;;;34.30;82.30;;;;;;5010756;28;20018;-61
2022/03/28 06:59:55;;;;;;;26.95;20.33;;;34.40;83.50;;;;;;5016279;28;20049;-60
2022/03/28 07:02:22;;;;;;;33.08;19.35;;;34.50;81.90;;;;;;5012043;28;20071;-61
2022/03/28 07:04:49;;;;;;;26.42;18.77;;;34.60;80.00;;;;;;4998658;28;20022;-61
2022/03/28 07:07:16;;;;;;;30.60;18.73;;;34.60;79.20;;;;;;5002431;28;20380;-60
2022/03/28 07:09:42;;;;;;;34.88;19.80;;;34.40;80.10;;;;;;5002677;28;20018;-61
2022/03/28 07:12:10;;;;;;;30.20;19.48;;;34.50;79.30;;;;;;5002061;28;20031;-60
2022/03/28 07:14:37;;;;;;;29.80;19.23;;;34.40;77.70;;;;;;5006440;28;20550;-60
2022/03/28 07:17:07;;;;;;;34.63;18.90;;;34.60;78.70;;;;;;5005084;28;20030;-60
2022/03/28 07:19:33;;;;;;;31.15;17.85;;;34.70;79.40;;;;;;5008695;28;20041;-60
2022/03/28 07:22:00;;;;;;;32.95;20.00;;;34.70;78.30;;;;;;5006871;28;20030;-60
2022/03/28 07:24:27;;;;;;;36.25;21.05;;;34.80;78.10;;;;;;5015035;28;20495;-60
2022/03/28 07:26:54;;;;;;;34.13;23.42;;;34.90;78.30;;;;;;5006276;28;20034;-60
2022/03/28 07:29:21;;;;;;;30.63;20.17;;;34.80;78.50;;;;;;4997609;28;20050;-60
2022/03/28 07:31:48;;;;;;;34.92;23.77;;;34.80;78.30;;;;;;5002489;28;20396;-60
2022/03/28 07:36:46;;;;;;;31.58;20.48;;;34.70;78.60;;;;;;4998620;28;20034;-60
2022/03/28 07:39:12;;;;;;;33.13;20.05;;;34.70;77.30;;;;;;5008041;28;20033;-60
2022/03/28 07:41:39;;;;;;;29.52;18.58;;;34.80;76.20;;;;;;4999585;28;20056;-60
2022/03/28 07:44:06;;;;;;;33.30;18.02;;;35.00;73.90;;;;;;5015987;28;20522;-61
2022/03/28 07:46:33;;;;;;;28.13;19.20;;;35.10;73.20;;;;;;5002583;28;20058;-61
2022/03/28 07:48:59;;;;;;;37.45;18.25;;;35.20;72.10;;;;;;4997706;28;20030;-61
2022/03/28 07:51:26;;;;;;;34.20;19.83;;;35.20;72.50;;;;;;5011255;28;20095;-61
2022/03/28 07:53:54;;;;;;;28.80;20.33;;;35.20;72.10;;;;;;5003011;28;20461;-61
2022/03/28 07:56:22;;;;;;;34.67;21.70;;;35.10;72.50;;;;;;5006429;28;20026;-61
2022/03/28 07:58:48;;;;;;;35.75;20.67;;;34.90;72.70;;;;;;5012523;28;20030;-62
2022/03/28 08:01:15;;;;;;;28.45;19.30;;;34.80;72.80;;;;;;5012840;28;20068;-61
2022/03/28 08:03:42;;;;;;;34.85;20.27;;;34.90;73.90;;;;;;5007970;28;20030;-63
2022/03/28 08:06:09;;;;;;;28.65;19.00;;;35.00;73.30;;;;;;5014126;28;20028;-66
2022/03/28 08:08:36;;;;;;;36.58;19.38;;;35.00;72.50;;;;;;5011288;28;20014;-64
2022/03/28 08:11:08;;;;;;;32.65;19.08;;;35.00;72.30;;;;;;5003950;28;20465;-64
2022/03/28 08:13:35;;;;;;;32.15;20.15;;;35.10;72.30;;;;;;5012037;28;20017;-64
2022/03/28 08:16:03;;;;;;;30.38;20.55;;;35.10;72.20;;;;;;5014198;28;20034;-65
2022/03/28 08:18:30;;;;;;;29.98;22.05;;;35.10;74.20;;;;;;5011729;28;20021;-65
2022/03/28 08:20:57;;;;;;;45.67;33.55;;;35.10;73.90;;;;;;5014088;28;20100;-64
2022/03/28 08:23:24;;;;;;;44.25;24.92;;;35.20;74.30;;;;;;5010565;28;20117;-63
2022/03/28 08:25:51;;;;;;;46.38;28.48;;;35.10;73.60;;;;;;5001143;28;20018;-64
2022/03/28 08:28:18;;;;;;;29.23;20.77;;;35.00;73.30;;;;;;5000143;28;20033;-64
2022/03/28 08:30:45;;;;;;;30.48;19.85;;;35.00;74.50;;;;;;5011496;28;20029;-65
2022/03/28 08:33:12;;;;;;;31.45;20.02;;;34.90;72.30;;;;;;5012792;28;20440;-65
2022/03/28 08:35:40;;;;;;;43.45;23.38;;;34.90;73.10;;;;;;5011703;28;20578;-64
2022/03/28 08:38:07;;;;;;;32.28;20.98;;;34.90;72.50;;;;;;5013808;28;20034;-65
2022/03/28 08:40:34;;;;;;;38.10;20.38;;;35.00;72.10;;;;;;4995247;28;20061;-64
2022/03/28 08:43:03;;;;;;;31.42;20.92;;;35.00;71.30;;;;;;4993991;28;20018;-65
2022/03/28 08:45:30;;;;;;;28.10;17.55;;;35.00;71.10;;;;;;4996970;28;20026;-66
2022/03/28 08:47:58;;;;;;;38.50;27.02;;;35.00;71.30;;;;;;5006638;28;20068;-65
2022/03/28 08:50:24;;;;;;;30.33;20.65;;;35.00;70.70;;;;;;5011121;28;20534;-65
2022/03/28 08:52:51;;;;;;;35.83;19.67;;;35.00;70.00;;;;;;5012731;28;20038;-65
2022/03/28 08:55:19;;;;;;;148.70;118.05;;;35.00;71.40;;;;;;5010533;28;20108;-64
2022/03/28 08:57:46;;;;;;;54.83;37.47;;;35.00;71.20;;;;;;5013249;28;20038;-65
2022/03/28 09:00:12;;;;;;;64.05;27.10;;;35.00;72.10;;;;;;5009211;28;20087;-65
2022/03/28 09:02:41;;;;;;;29.58;20.90;;;35.00;72.00;;;;;;5010247;28;20022;-63
2022/03/28 09:05:15;;;;;;;34.53;22.73;;;34.90;72.70;;;;;;5012722;28;20492;-65
2022/03/28 09:07:43;;;;;;;39.00;21.38;;;34.90;73.10;;;;;;5011548;28;20026;-64
2022/03/28 09:10:16;;;;;;;35.92;25.50;;;34.90;73.00;;;;;;5012839;28;20018;-64
2022/03/28 09:13:04;;;;;;;50.03;36.22;;;35.00;72.70;;;;;;5010958;28;20026;-64
2022/03/28 09:15:45;;;;;;;60.10;39.75;;;34.90;72.90;;;;;;5010063;28;20030;-65
2022/03/28 09:18:24;;;;;;;41.13;30.00;;;34.90;72.80;;;;;;5010103;28;20045;-65
2022/03/28 09:20:57;;;;;;;55.00;29.45;;;34.80;72.60;;;;;;5004926;28;20302;-69
2022/03/28 09:23:37;;;;;;;48.08;32.70;;;34.80;72.70;;;;;;5008491;28;20162;-64
2022/03/28 09:26:12;;;;;;;144.32;124.28;;;34.80;72.00;;;;;;5007702;28;20026;-65
2022/03/28 09:28:50;;;;;;;83.13;54.55;;;34.80;72.00;;;;;;5007517;28;20038;-66
2022/03/28 09:31:38;;;;;;;59.40;40.40;;;34.80;72.60;;;;;;5012677;28;20480;-68
2022/03/28 09:34:13;;;;;;;57.10;39.00;;;34.80;73.00;;;;;;5009664;28;20027;-64
2022/03/28 09:36:50;;;;;;;60.20;39.72;;;34.80;72.20;;;;;;5012648;28;20049;-65
2022/03/28 09:39:20;;;;;;;52.40;32.13;;;34.80;72.00;;;;;;5012948;28;20018;-65
2022/03/28 09:41:58;;;;;;;59.20;36.15;;;34.80;71.50;;;;;;5010172;28;20033;-65
2022/03/28 09:44:36;;;;;;;47.53;28.38;;;34.80;71.60;;;;;;5012392;28;21316;-65
2022/03/28 09:47:11;;;;;;;50.53;27.52;;;34.70;71.00;;;;;;5000442;28;20029;-61
2022/03/28 09:49:41;;;;;;;53.38;32.53;;;34.70;71.00;;;;;;5013898;28;20018;-62
2022/03/28 09:52:11;;;;;;;59.13;38.15;;;34.70;71.00;;;;;;5013353;28;20038;-63
2022/03/28 09:54:55;;;;;;;60.60;34.78;;;34.60;71.40;;;;;;5011380;28;20030;-62
2022/03/28 09:57:31;;;;;;;80.82;49.28;;;34.60;71.10;;;;;;5012220;28;20037;-62
2022/03/28 10:00:09;;;;;;;105.88;66.10;;;34.60;71.50;;;;;;5010268;28;20026;-62
2022/03/28 10:02:36;;;;;;;87.05;50.03;;;34.50;70.20;;;;;;5012419;28;20151;-62
2022/03/28 10:05:03;;;;;;;128.63;66.85;;;34.60;70.90;;;;;;5011987;28;20023;-62
2022/03/28 10:07:32;;;;;;;94.28;50.85;;;34.60;70.60;;;;;;5012496;28;20127;-62
2022/03/28 10:09:59;;;;;;;96.57;54.63;;;34.50;70.50;;;;;;5014414;28;20022;-62
2022/03/28 10:12:27;;;;;;;146.85;77.00;;;34.50;70.50;;;;;;5014217;28;20030;-61
2022/03/28 10:14:58;;;;;;;83.07;43.97;;;34.50;70.50;;;;;;5011567;28;20057;-61
2022/03/28 10:17:28;;;;;;;89.28;54.08;;;34.50;70.40;;;;;;5012657;28;20018;-62
2022/03/28 10:19:55;;;;;;;71.80;42.70;;;34.50;70.70;;;;;;5011879;28;20034;-62
2022/03/28 10:22:33;;;;;;;60.50;35.67;;;34.50;71.20;;;;;;5014115;28;20036;-61
2022/03/28 10:25:08;;;;;;;51.13;31.63;;;34.40;71.80;;;;;;5015637;28;20025;-61
2022/03/28 10:27:36;;;;;;;46.35;28.50;;;34.40;70.50;;;;;;5013768;28;20052;-62
2022/03/28 10:30:12;;;;;;;67.22;36.90;;;34.30;71.40;;;;;;5015313;28;20466;-62
2022/03/28 10:32:39;;;;;;;65.93;39.28;;;34.30;71.10;;;;;;5013630;28;20026;-60
2022/03/28 10:35:07;;;;;;;81.65;48.47;;;34.20;72.40;;;;;;5014869;28;20025;-62
2022/03/28 10:37:49;;;;;;;83.50;48.58;;;34.20;72.10;;;;;;5011856;28;20030;-62
2022/03/28 10:40:24;;;;;;;105.10;59.08;;;34.20;73.40;;;;;;5014628;28;20079;-62
2022/03/28 10:43:08;;;;;;;105.20;62.00;;;34.20;73.70;;;;;;5014856;28;20037;-62
2022/03/28 10:45:36;;;;;;;143.77;87.50;;;34.10;73.00;;;;;;5014400;28;20014;-62
2022/03/28 10:48:05;;;;;;;154.55;95.13;;;34.10;73.20;;;;;;5012503;28;20966;-62
2022/03/28 10:50:34;;;;;;;181.27;113.78;;;34.10;74.30;;;;;;5014458;28;20018;-61
2022/03/28 10:53:11;;;;;;;111.50;65.03;;;34.00;75.30;;;;;;5014080;28;20105;-62
2022/03/28 10:55:51;;;;;;;79.88;49.78;;;33.90;77.10;;;;;;5014716;28;20026;-62
2022/03/28 10:58:28;;;;;;;60.78;39.97;;;33.70;82.50;;;;;;5010311;28;20053;-62
2022/03/28 11:01:01;;;;;;;50.05;31.85;;;33.60;85.20;;;;;;5015236;28;20547;-61
2022/03/28 11:03:51;;;;;;;44.65;31.17;;;33.50;86.50;;;;;;5013539;28;20033;-61
2022/03/28 11:06:21;;;;;;;45.08;30.95;;;33.50;88.10;;;;;;5014645;28;20037;-61
2022/03/28 11:09:00;;;;;;;55.15;36.03;;;33.40;89.20;;;;;;5015498;28;20021;-61
2022/03/28 11:11:30;;;;;;;48.63;34.00;;;33.30;90.20;;;;;;5010303;28;20038;-62
2022/03/28 11:14:10;;;;;;;61.17;43.22;;;33.20;90.50;;;;;;5012303;28;20475;-62
2022/03/28 11:16:53;;;;;;;56.95;39.58;;;33.10;91.00;;;;;;5011791;28;20116;-61
2022/03/28 11:19:30;;;;;;;60.03;39.75;;;33.00;91.30;;;;;;5015484;28;20018;-62
2022/03/28 11:22:08;;;;;;;64.60;44.05;;;32.90;91.80;;;;;;5011970;28;20102;-61
2022/03/28 11:24:45;;;;;;;57.78;38.58;;;32.80;92.30;;;;;;5014279;28;20030;-62
2022/03/28 11:27:13;;;;;;;53.08;35.95;;;32.70;92.90;;;;;;5009107;28;20029;-62
2022/03/28 11:29:41;;;;;;;59.92;37.28;;;32.60;93.20;;;;;;5014215;28;20077;-61
2022/03/28 11:32:14;;;;;;;52.35;35.42;;;32.50;93.50;;;;;;5012485;28;20029;-62
2022/03/28 11:34:48;;;;;;;46.88;35.30;;;32.40;93.90;;;;;;5013166;28;20522;-61
2022/03/28 11:37:16;;;;;;;51.97;37.95;;;32.40;94.20;;;;;;5012567;28;20030;-61
2022/03/28 11:40:01;;;;;;;52.70;37.20;;;32.40;94.50;;;;;;5010044;28;20033;-62
2022/03/28 11:42:31;;;;;;;54.72;36.92;;;32.30;94.90;;;;;;5010698;28;20037;-62
2022/03/28 11:45:05;;;;;;;52.80;35.67;;;32.20;95.50;;;;;;5005576;28;20034;-61
2022/03/28 11:47:34;;;;;;;50.95;33.00;;;32.10;95.80;;;;;;5003050;28;20104;-62
2022/03/28 11:50:03;;;;;;;45.40;30.70;;;32.00;96.30;;;;;;5014109;28;20025;-61
2022/03/28 11:52:31;;;;;;;43.83;29.90;;;32.10;96.60;;;;;;5009490;28;20026;-61
2022/03/28 11:54:59;;;;;;;46.72;27.42;;;32.10;97.00;;;;;;5012763;28;20034;-62
2022/03/28 12:00:23;;;;;;;35.05;25.15;;;32.00;97.30;;;;;;5002717;28;20408;-62
2022/03/28 12:02:53;;;;;;;41.78;29.67;;;31.90;97.60;;;;;;5013143;28;20039;-62
2022/03/28 12:05:32;;;;;;;42.42;26.15;;;31.80;98.00;;;;;;5010614;28;20049;-62
2022/03/28 12:08:01;;;;;;;41.80;27.73;;;31.80;98.40;;;;;;5009006;28;20469;-61
2022/03/28 12:10:32;;;;;;;42.40;27.65;;;31.70;98.50;;;;;;5009544;28;20500;-62
2022/03/28 12:13:02;;;;;;;39.53;26.50;;;31.70;98.70;;;;;;5006960;28;20480;-61
2022/03/28 12:15:31;;;;;;;37.78;25.50;;;31.70;99.00;;;;;;5008663;28;20030;-62
2022/03/28 12:17:59;;;;;;;38.15;26.40;;;31.70;99.10;;;;;;5012027;28;20068;-62
2022/03/28 12:20:29;;;;;;;35.90;23.38;;;31.60;99.20;;;;;;5013774;28;20088;-63
2022/03/28 12:22:56;;;;;;;39.22;24.13;;;31.70;99.50;;;;;;5009554;28;20033;-62
2022/03/28 12:25:27;;;;;;;34.17;22.85;;;31.70;99.70;;;;;;5008614;28;20083;-62
2022/03/28 12:27:57;;;;;;;37.58;23.88;;;31.60;99.90;;;;;;4997815;28;20027;-63
2022/03/28 12:30:28;;;;;;;41.90;25.20;;;31.60;99.90;;;;;;5007271;28;20046;-62
2022/03/28 12:32:55;;;;;;;41.85;26.80;;;31.60;99.90;;;;;;5004236;28;20037;-62
2022/03/28 12:35:23;;;;;;;40.95;27.38;;;31.60;99.90;;;;;;5013426;28;20020;-63
2022/03/28 12:38:00;;;;;;;43.10;28.80;;;31.60;99.90;;;;;;5013928;28;20025;-63
2022/03/28 12:40:29;;;;;;;44.03;28.25;;;31.50;99.90;;;;;;4998783;28;20034;-61